createdAt,value
2023-07-09T00:00:12.765Z,21.31
2023-07-09T00:01:12.782Z,22.30
2023-07-09T00:02:12.796Z,23.63
2023-07-09T00:03:12.874Z,24.29
2023-07-09T00:04:12.904Z,23.95
2023-07-09T00:05:12.970Z,24.38
2023-07-09T00:06:13.017Z,22.43
2023-07-09T00:07:13.050Z,22.57
2023-07-09T00:08:13.108Z,21.58
2023-07-09T00:09:13.176Z,21.58
2023-07-09T00:10:13.241Z,23.31
2023-07-09T00:11:13.275Z,20.62
2023-07-09T00:12:13.306Z,20.44
2023-07-09T00:13:13.375Z,18.09
2023-07-09T00:14:13.434Z,18.50
2023-07-09T00:15:13.447Z,18.58
2023-07-09T00:16:13.500Z,17.75
2023-07-09T00:17:13.524Z,17.14
2023-07-09T00:18:13.556Z,16.49
2023-07-09T00:19:13.608Z,16.08
2023-07-09T00:20:13.657Z,16.46
2023-07-09T00:21:13.689Z,16.47
2023-07-09T00:22:13.735Z,16.45
2023-07-09T00:23:13.762Z,16.28
2023-07-09T00:24:13.820Z,16.70
2023-07-09T00:25:13.873Z,17.01
2023-07-09T00:26:13.918Z,16.64
2023-07-09T00:27:13.947Z,17.04
2023-07-09T00:28:14.002Z,16.52
2023-07-09T00:29:14.029Z,16.94
2023-07-09T00:30:14.065Z,16.56
2023-07-09T00:31:14.131Z,16.71
2023-07-09T00:32:14.157Z,16.93
2023-07-09T00:33:14.220Z,17.26
2023-07-09T00:34:14.289Z,17.34
2023-07-09T00:35:14.314Z,17.33
2023-07-09T00:36:14.353Z,17.11
2023-07-09T00:37:14.409Z,17.86
2023-07-09T00:38:14.585Z,18.28
2023-07-09T00:39:14.427Z,18.31
2023-07-09T00:40:14.421Z,18.51
2023-07-09T00:41:14.434Z,18.59
2023-07-09T00:42:14.419Z,18.21
2023-07-09T00:43:14.428Z,18.27
2023-07-09T00:44:14.404Z,20.15
2023-07-09T00:45:14.410Z,20.01
2023-07-09T00:46:14.437Z,22.01
2023-07-09T00:47:14.405Z,22.49
2023-07-09T00:48:14.423Z,21.99
2023-07-09T00:49:14.489Z,20.22
2023-07-09T00:50:14.549Z,20.27
2023-07-09T00:51:14.623Z,19.72
2023-07-09T00:52:14.636Z,20.29
2023-07-09T00:53:14.697Z,18.60
2023-07-09T00:54:14.785Z,17.05
2023-07-09T00:55:14.833Z,18.12
2023-07-09T00:56:14.862Z,17.49
2023-07-09T00:57:14.899Z,16.12
2023-07-09T00:58:14.986Z,18.67
2023-07-09T00:59:15.049Z,18.04
2023-07-09T01:00:15.160Z,18.73
2023-07-09T01:01:15.170Z,19.77
2023-07-09T01:02:15.188Z,19.66
2023-07-09T01:03:15.267Z,18.86
2023-07-09T01:04:15.260Z,17.93
2023-07-09T01:05:15.305Z,18.93
2023-07-09T01:06:15.238Z,20.28
2023-07-09T01:07:15.250Z,21.35
2023-07-09T01:08:15.256Z,21.21
2023-07-09T01:09:15.276Z,20.76
2023-07-09T01:10:15.248Z,20.51
2023-07-09T01:11:15.279Z,20.18
2023-07-09T01:12:15.367Z,19.60
2023-07-09T01:13:15.413Z,18.72
2023-07-09T01:14:15.474Z,19.08
2023-07-09T01:15:15.547Z,17.79
2023-07-09T01:16:15.594Z,18.48
2023-07-09T01:17:15.665Z,18.67
2023-07-09T01:18:15.707Z,18.17
2023-07-09T01:19:15.771Z,18.14
2023-07-09T01:20:15.822Z,18.87
2023-07-09T01:21:15.895Z,19.75
2023-07-09T01:22:15.975Z,19.81
2023-07-09T01:23:16.055Z,19.43
2023-07-09T01:24:16.105Z,18.39
2023-07-09T01:25:16.130Z,18.74
2023-07-09T01:26:16.215Z,17.77
2023-07-09T01:27:16.251Z,17.70
2023-07-09T01:28:16.339Z,17.00
2023-07-09T01:29:16.362Z,17.59
2023-07-09T01:30:16.404Z,17.05
2023-07-09T01:31:16.548Z,17.40
2023-07-09T01:32:16.521Z,16.93
2023-07-09T01:33:16.618Z,16.98
2023-07-09T01:34:16.684Z,17.57
2023-07-09T01:35:16.717Z,18.55
2023-07-09T01:36:16.831Z,17.77
2023-07-09T01:37:16.811Z,17.75
2023-07-09T01:38:16.947Z,18.23
2023-07-09T01:39:17.627Z,19.68
2023-07-09T01:40:28.811Z,20.47
2023-07-09T01:41:17.977Z,20.53
2023-07-09T01:42:17.022Z,20.73
2023-07-09T01:43:17.007Z,20.92
2023-07-09T01:44:16.967Z,20.94
2023-07-09T01:45:16.989Z,21.23
2023-07-09T01:46:16.980Z,21.49
2023-07-09T01:47:17.060Z,19.96
2023-07-09T01:48:17.533Z,19.92
2023-07-09T01:49:16.952Z,20.37
2023-07-09T01:50:16.929Z,21.68
2023-07-09T01:51:16.954Z,22.47
2023-07-09T01:52:16.971Z,22.38
2023-07-09T01:53:17.040Z,20.03
2023-07-09T01:54:17.056Z,20.21
2023-07-09T01:55:17.053Z,19.74
2023-07-09T01:56:17.094Z,19.29
2023-07-09T01:57:17.185Z,19.46
2023-07-09T01:58:17.202Z,19.33
2023-07-09T01:59:17.248Z,19.60
2023-07-09T02:00:17.269Z,19.50
2023-07-09T02:01:17.339Z,18.19
2023-07-09T02:02:17.353Z,19.44
2023-07-09T02:03:17.355Z,17.48
2023-07-09T02:04:17.389Z,18.30
2023-07-09T02:05:17.400Z,18.68
2023-07-09T02:06:17.412Z,19.57
2023-07-09T02:07:17.412Z,17.95
2023-07-09T02:08:17.392Z,18.48
2023-07-09T02:09:17.400Z,19.24
2023-07-09T02:10:17.448Z,20.06
2023-07-09T02:11:17.392Z,19.90
2023-07-09T02:12:17.427Z,21.11
2023-07-09T02:13:17.384Z,20.54
2023-07-09T02:14:17.452Z,21.70
2023-07-09T02:15:17.448Z,22.25
2023-07-09T02:16:17.459Z,23.15
2023-07-09T02:17:17.514Z,23.11
2023-07-09T02:18:17.546Z,23.10
2023-07-09T02:19:17.544Z,23.24
2023-07-09T02:20:17.553Z,23.59
2023-07-09T02:21:17.564Z,23.59
2023-07-09T02:22:17.534Z,24.99
2023-07-09T02:23:17.545Z,25.25
2023-07-09T02:24:17.552Z,24.53
2023-07-09T02:25:17.539Z,24.03
2023-07-09T02:26:17.626Z,23.86
2023-07-09T02:27:17.611Z,23.19
2023-07-09T02:28:17.604Z,22.99
2023-07-09T02:29:17.609Z,21.77
2023-07-09T02:30:17.614Z,21.12
2023-07-09T02:31:17.609Z,21.85
2023-07-09T02:32:17.588Z,21.98
2023-07-09T02:33:17.610Z,20.47
2023-07-09T02:34:17.658Z,20.54
2023-07-09T02:35:17.602Z,18.78
2023-07-09T02:36:17.624Z,19.20
2023-07-09T02:37:17.607Z,19.96
2023-07-09T02:38:17.618Z,19.27
2023-07-09T02:39:17.625Z,20.29
2023-07-09T02:40:18.143Z,20.36
2023-07-09T02:41:17.642Z,20.28
2023-07-09T02:42:17.624Z,20.44
2023-07-09T02:43:17.658Z,21.56
2023-07-09T02:44:17.661Z,21.33
2023-07-09T02:45:17.629Z,20.51
2023-07-09T02:46:17.638Z,20.64
2023-07-09T02:47:17.671Z,20.56
2023-07-09T02:48:17.678Z,20.00
2023-07-09T02:49:17.625Z,19.50
2023-07-09T02:50:17.624Z,18.39
2023-07-09T02:51:17.621Z,19.58
2023-07-09T02:52:17.639Z,20.34
2023-07-09T02:53:17.671Z,19.99
2023-07-09T02:54:17.683Z,19.87
2023-07-09T02:55:17.686Z,18.99
2023-07-09T02:56:17.775Z,19.06
2023-07-09T02:57:17.724Z,20.31
2023-07-09T02:58:17.747Z,20.14
2023-07-09T02:59:17.771Z,20.38
2023-07-09T03:00:17.773Z,20.24
2023-07-09T03:01:17.781Z,19.25
2023-07-09T03:02:17.919Z,18.05
2023-07-09T03:03:18.405Z,17.52
2023-07-09T03:04:17.853Z,18.36
2023-07-09T03:05:17.875Z,20.17
2023-07-09T03:06:17.906Z,20.96
2023-07-09T03:07:17.913Z,23.20
2023-07-09T03:08:17.941Z,23.12
2023-07-09T03:09:17.952Z,22.60
2023-07-09T03:10:17.957Z,21.03
2023-07-09T03:11:18.010Z,20.69
2023-07-09T03:12:18.054Z,19.63
2023-07-09T03:13:18.065Z,18.68
2023-07-09T03:14:18.059Z,18.56
2023-07-09T03:15:18.085Z,18.13
2023-07-09T03:16:18.082Z,17.38
2023-07-09T03:17:18.139Z,17.34
2023-07-09T03:18:18.168Z,16.93
2023-07-09T03:19:18.171Z,17.47
2023-07-09T03:20:18.195Z,17.29
2023-07-09T03:21:18.193Z,17.28
2023-07-09T03:22:18.203Z,17.15
2023-07-09T03:23:18.244Z,16.56
2023-07-09T03:24:18.263Z,16.07
2023-07-09T03:25:18.291Z,15.70
2023-07-09T03:26:18.305Z,15.44
2023-07-09T03:27:18.289Z,15.09
2023-07-09T03:28:18.301Z,16.00
2023-07-09T03:29:18.309Z,16.20
2023-07-09T03:30:18.352Z,15.81
2023-07-09T03:31:18.429Z,15.55
2023-07-09T03:32:18.413Z,15.55
2023-07-09T03:33:18.375Z,15.47
2023-07-09T03:34:20.248Z,16.10
2023-07-09T03:35:18.414Z,15.87
2023-07-09T03:36:18.436Z,15.58
2023-07-09T03:37:18.451Z,16.22
2023-07-09T03:38:18.445Z,16.17
2023-07-09T03:39:18.453Z,16.26
2023-07-09T03:40:18.504Z,15.52
2023-07-09T03:41:19.222Z,16.41
2023-07-09T03:42:18.544Z,17.13
2023-07-09T03:43:18.542Z,17.91
2023-07-09T03:44:18.578Z,17.77
2023-07-09T03:45:18.565Z,18.21
2023-07-09T03:46:18.631Z,17.33
2023-07-09T03:47:18.667Z,17.68
2023-07-09T03:48:18.739Z,17.58
2023-07-09T03:49:18.662Z,17.96
2023-07-09T03:50:18.674Z,18.31
2023-07-09T03:51:18.724Z,17.54
2023-07-09T03:52:18.724Z,17.07
2023-07-09T03:53:18.733Z,17.07
2023-07-09T03:54:18.780Z,16.96
2023-07-09T03:55:18.790Z,16.33
2023-07-09T03:56:18.804Z,16.36
2023-07-09T03:57:18.854Z,15.79
2023-07-09T03:58:18.872Z,15.46
2023-07-09T03:59:18.887Z,15.40
2023-07-09T04:00:18.893Z,14.55
2023-07-09T04:01:18.940Z,14.73
2023-07-09T04:02:19.000Z,14.86
2023-07-09T04:03:18.921Z,14.39
2023-07-09T04:04:19.086Z,13.70
2023-07-09T04:05:18.971Z,13.82
2023-07-09T04:06:18.972Z,14.12
2023-07-09T04:07:21.145Z,14.12
2023-07-09T04:08:18.997Z,14.10
2023-07-09T04:09:19.041Z,14.33
2023-07-09T04:10:19.070Z,14.74
2023-07-09T04:11:19.084Z,14.18
2023-07-09T04:12:19.093Z,14.00
2023-07-09T04:13:19.122Z,13.78
2023-07-09T04:14:19.183Z,14.25
2023-07-09T04:15:19.142Z,14.38
2023-07-09T04:16:19.265Z,14.36
2023-07-09T04:17:19.227Z,14.37
2023-07-09T04:18:19.289Z,14.24
2023-07-09T04:19:19.260Z,14.15
2023-07-09T04:20:19.288Z,14.61
2023-07-09T04:21:19.318Z,14.69
2023-07-09T04:22:19.319Z,14.33
2023-07-09T04:23:19.362Z,14.18
2023-07-09T04:24:19.391Z,13.86
2023-07-09T04:25:19.394Z,14.34
2023-07-09T04:26:19.400Z,14.70
2023-07-09T04:27:19.401Z,14.51
2023-07-09T04:28:19.483Z,14.54
2023-07-09T04:29:19.457Z,14.34
2023-07-09T04:30:19.460Z,14.43
2023-07-09T04:31:19.492Z,14.44
2023-07-09T04:32:19.552Z,14.68
2023-07-09T04:33:19.525Z,14.96
2023-07-09T04:34:19.549Z,15.05
2023-07-09T04:35:19.549Z,15.04
2023-07-09T04:36:19.561Z,14.59
2023-07-09T04:37:19.574Z,14.43
2023-07-09T04:38:19.661Z,14.33
2023-07-09T04:39:19.617Z,13.89
2023-07-09T04:40:19.645Z,14.01
2023-07-09T04:41:19.684Z,13.80
2023-07-09T04:42:19.685Z,13.97
2023-07-09T04:43:19.709Z,14.12
2023-07-09T04:44:19.752Z,14.43
2023-07-09T04:45:19.739Z,15.08
2023-07-09T04:46:19.832Z,15.08
2023-07-09T04:47:19.822Z,14.75
2023-07-09T04:48:19.856Z,15.50
2023-07-09T04:49:19.873Z,15.25
2023-07-09T04:50:19.915Z,15.60
2023-07-09T04:51:19.922Z,15.16
2023-07-09T04:52:19.963Z,14.63
2023-07-09T04:53:20.007Z,14.12
2023-07-09T04:54:20.029Z,14.27
2023-07-09T04:55:20.083Z,14.39
2023-07-09T04:56:20.129Z,13.69
2023-07-09T04:57:20.136Z,13.67
2023-07-09T04:58:20.220Z,13.34
2023-07-09T04:59:20.240Z,14.18
2023-07-09T05:00:20.259Z,13.92
2023-07-09T05:01:20.371Z,13.77
2023-07-09T05:02:20.406Z,13.63
2023-07-09T05:03:20.422Z,13.50
2023-07-09T05:04:22.212Z,13.51
2023-07-09T05:05:20.472Z,14.04
2023-07-09T05:06:20.491Z,13.86
2023-07-09T05:07:20.545Z,13.54
2023-07-09T05:08:20.545Z,13.70
2023-07-09T05:09:20.602Z,13.42
2023-07-09T05:10:20.649Z,14.04
2023-07-09T05:11:20.688Z,14.23
2023-07-09T05:12:20.718Z,14.75
2023-07-09T05:13:20.787Z,13.62
2023-07-09T05:14:20.800Z,13.69
2023-07-09T05:15:20.846Z,14.43
2023-07-09T05:16:20.931Z,14.52
2023-07-09T05:17:20.997Z,15.31
2023-07-09T05:18:20.975Z,15.43
2023-07-09T05:19:21.026Z,15.02
2023-07-09T05:20:21.060Z,14.62
2023-07-09T05:21:21.106Z,15.45
2023-07-09T05:22:21.131Z,15.82
2023-07-09T05:23:21.219Z,15.91
2023-07-09T05:24:21.244Z,15.72
2023-07-09T05:25:21.296Z,14.95
2023-07-09T05:26:21.322Z,14.74
2023-07-09T05:27:21.372Z,15.01
2023-07-09T05:28:21.413Z,14.77
2023-07-09T05:29:21.450Z,14.71
2023-07-09T05:30:21.530Z,14.60
2023-07-09T05:31:21.567Z,14.12
2023-07-09T05:32:21.657Z,14.94
2023-07-09T05:33:21.664Z,14.61
2023-07-09T05:34:21.712Z,14.80
2023-07-09T05:35:21.758Z,15.11
2023-07-09T05:36:21.811Z,13.54
2023-07-09T05:37:21.856Z,15.40
2023-07-09T05:38:21.911Z,14.66
2023-07-09T05:39:21.927Z,13.77
2023-07-09T05:40:22.007Z,12.76
2023-07-09T05:41:22.022Z,12.98
2023-07-09T05:42:22.094Z,12.25
2023-07-09T05:43:22.171Z,12.20
2023-07-09T05:44:22.174Z,12.64
2023-07-09T05:45:22.229Z,12.04
2023-07-09T05:46:22.297Z,11.89
2023-07-09T05:47:22.332Z,11.63
2023-07-09T05:48:22.340Z,11.70
2023-07-09T05:49:22.419Z,12.10
2023-07-09T05:50:22.440Z,11.58
2023-07-09T05:51:22.479Z,11.35
2023-07-09T05:52:22.474Z,10.63
2023-07-09T05:53:22.517Z,12.24
2023-07-09T05:54:22.564Z,12.26
2023-07-09T05:55:22.589Z,11.71
2023-07-09T05:56:22.630Z,11.69
2023-07-09T05:57:22.625Z,11.72
2023-07-09T05:58:22.664Z,11.66
2023-07-09T05:59:22.696Z,10.65
2023-07-09T06:00:22.697Z,10.90
2023-07-09T06:01:22.848Z,10.82
2023-07-09T06:02:22.858Z,11.42
2023-07-09T06:03:22.934Z,11.56
2023-07-09T06:04:22.855Z,11.61
2023-07-09T06:05:22.872Z,11.51
2023-07-09T06:06:22.871Z,11.46
2023-07-09T06:07:22.902Z,12.34
2023-07-09T06:08:22.937Z,11.35
2023-07-09T06:09:22.965Z,10.48
2023-07-09T06:10:23.028Z,11.15
2023-07-09T06:11:23.060Z,11.86
2023-07-09T06:12:23.101Z,12.46
2023-07-09T06:13:23.232Z,13.14
2023-07-09T06:14:23.152Z,11.89
2023-07-09T06:15:23.203Z,10.30
2023-07-09T06:16:23.277Z,10.89
2023-07-09T06:17:23.325Z,10.55
2023-07-09T06:18:23.297Z,9.79
2023-07-09T06:19:23.302Z,8.64
2023-07-09T06:20:23.330Z,8.02
2023-07-09T06:21:23.359Z,7.59
2023-07-09T06:22:23.407Z,8.27
2023-07-09T06:23:23.490Z,8.26
2023-07-09T06:24:23.449Z,8.51
2023-07-09T06:25:23.537Z,8.71
2023-07-09T06:26:23.540Z,8.36
2023-07-09T06:27:23.572Z,8.79
2023-07-09T06:28:23.582Z,8.85
2023-07-09T06:29:23.633Z,9.89
2023-07-09T06:30:23.709Z,9.64
2023-07-09T06:31:23.707Z,8.13
2023-07-09T06:32:23.762Z,8.71
2023-07-09T06:33:23.719Z,8.79
2023-07-09T06:34:23.771Z,8.09
2023-07-09T06:35:23.786Z,6.79
2023-07-09T06:36:23.809Z,8.14
2023-07-09T06:37:23.897Z,7.55
2023-07-09T06:38:23.836Z,7.15
2023-07-09T06:39:23.852Z,7.21
2023-07-09T06:40:23.880Z,7.10
2023-07-09T06:41:23.919Z,6.76
2023-07-09T06:42:23.878Z,8.48
2023-07-09T06:43:23.920Z,6.89
2023-07-09T06:44:24.067Z,6.05
2023-07-09T06:45:24.107Z,7.37
2023-07-09T06:46:24.131Z,7.45
2023-07-09T06:47:24.195Z,7.43
2023-07-09T06:48:24.164Z,7.73
2023-07-09T06:49:24.188Z,6.61
2023-07-09T06:50:24.191Z,5.43
2023-07-09T06:51:24.198Z,6.06
2023-07-09T06:52:24.193Z,5.50
2023-07-09T06:53:24.242Z,5.47
2023-07-09T06:54:24.249Z,6.23
2023-07-09T06:55:24.262Z,6.58
2023-07-09T06:56:24.299Z,6.39
2023-07-09T06:57:24.308Z,5.26
2023-07-09T06:58:24.311Z,4.79
2023-07-09T06:59:24.346Z,4.36
2023-07-09T07:00:24.403Z,4.14
2023-07-09T07:01:24.463Z,4.63
2023-07-09T07:02:24.445Z,6.04
2023-07-09T07:03:24.830Z,6.44
2023-07-09T07:04:24.429Z,6.34
2023-07-09T07:05:24.493Z,6.35
2023-07-09T07:06:24.477Z,6.70
2023-07-09T07:07:24.503Z,6.63
2023-07-09T07:08:24.526Z,5.75
2023-07-09T07:09:24.586Z,5.89
2023-07-09T07:10:24.688Z,6.94
2023-07-09T07:11:24.710Z,7.00
2023-07-09T07:12:24.681Z,5.30
2023-07-09T07:13:24.731Z,6.27
2023-07-09T07:14:24.726Z,5.46
2023-07-09T07:15:24.688Z,4.10
2023-07-09T07:16:24.807Z,4.08
2023-07-09T07:17:24.740Z,4.49
2023-07-09T07:18:24.763Z,3.63
2023-07-09T07:19:24.748Z,4.30
2023-07-09T07:20:24.793Z,4.24
2023-07-09T07:21:24.792Z,5.23
2023-07-09T07:22:24.812Z,4.56
2023-07-09T07:23:24.925Z,4.39
2023-07-09T07:24:24.941Z,4.85
2023-07-09T07:25:24.891Z,4.92
2023-07-09T07:26:24.922Z,4.08
2023-07-09T07:27:24.929Z,3.43
2023-07-09T07:28:24.913Z,2.81
2023-07-09T07:29:24.905Z,3.12
2023-07-09T07:30:26.400Z,3.76
2023-07-09T07:31:24.951Z,4.37
2023-07-09T07:32:24.980Z,4.87
2023-07-09T07:33:24.959Z,4.84
2023-07-09T07:34:25.033Z,4.99
2023-07-09T07:35:25.085Z,6.86
2023-07-09T07:36:30.910Z,7.51
2023-07-09T07:37:26.152Z,7.57
2023-07-09T07:38:25.162Z,8.19
2023-07-09T07:39:25.136Z,8.26
2023-07-09T07:40:25.218Z,11.45
2023-07-09T07:41:25.157Z,12.35
2023-07-09T07:42:25.112Z,9.76
2023-07-09T07:43:25.103Z,23.45
2023-07-09T07:44:25.112Z,27.06
2023-07-09T07:45:25.097Z,30.49
2023-07-09T07:46:25.159Z,31.97
2023-07-09T07:47:25.121Z,31.87
2023-07-09T07:48:25.105Z,28.70
2023-07-09T07:49:25.150Z,28.71
2023-07-09T07:50:25.178Z,27.45
2023-07-09T07:51:25.223Z,26.90
2023-07-09T07:52:25.237Z,22.95
2023-07-09T07:53:25.285Z,25.45
2023-07-09T07:54:25.288Z,24.97
2023-07-09T07:55:25.285Z,26.24
2023-07-09T07:56:25.347Z,24.41
2023-07-09T07:57:25.339Z,23.29
2023-07-09T07:58:25.378Z,21.32
2023-07-09T07:59:25.441Z,21.95
2023-07-09T08:00:25.439Z,21.72
2023-07-09T08:01:25.491Z,19.17
2023-07-09T08:02:25.560Z,17.55
2023-07-09T08:03:25.580Z,21.27
2023-07-09T08:04:25.709Z,20.02
2023-07-09T08:05:25.576Z,21.10
2023-07-09T08:06:25.586Z,19.27
2023-07-09T08:07:25.575Z,19.86
2023-07-09T08:08:25.576Z,20.05
2023-07-09T08:09:25.657Z,18.99
2023-07-09T08:10:25.631Z,20.75
2023-07-09T08:11:25.658Z,23.47
2023-07-09T08:12:25.684Z,23.69
2023-07-09T08:13:25.723Z,24.65
2023-07-09T08:14:25.746Z,24.89
2023-07-09T08:15:25.753Z,26.22
2023-07-09T08:16:25.774Z,26.92
2023-07-09T08:17:25.797Z,28.56
2023-07-09T08:18:25.821Z,29.91
2023-07-09T08:19:25.801Z,29.18
2023-07-09T08:20:25.826Z,28.20
2023-07-09T08:21:25.844Z,27.24
2023-07-09T08:22:25.867Z,27.71
2023-07-09T08:23:25.862Z,28.17
2023-07-09T08:24:25.877Z,23.17
2023-07-09T08:25:25.883Z,23.08
2023-07-09T08:26:25.899Z,20.74
2023-07-09T08:27:25.898Z,20.47
2023-07-09T08:28:25.917Z,20.60
2023-07-09T08:29:25.913Z,21.04
2023-07-09T08:30:25.938Z,20.28
2023-07-09T08:31:25.959Z,18.43
2023-07-09T08:32:25.908Z,15.20
2023-07-09T08:33:25.918Z,14.56
2023-07-09T08:34:25.949Z,13.54
2023-07-09T08:35:36.009Z,12.35
2023-07-09T08:36:29.668Z,12.35
2023-07-09T08:37:25.942Z,12.31
2023-07-09T08:38:25.933Z,11.75
2023-07-09T08:39:25.934Z,11.77
2023-07-09T08:40:25.885Z,11.07
2023-07-09T08:41:25.906Z,10.41
2023-07-09T08:42:25.907Z,9.92
2023-07-09T08:43:25.905Z,9.07
2023-07-09T08:44:25.898Z,9.35
2023-07-09T08:45:25.859Z,9.13
2023-07-09T08:46:25.880Z,9.50
2023-07-09T08:47:25.914Z,9.45
2023-07-09T08:48:25.853Z,8.81
2023-07-09T08:49:25.863Z,8.07
2023-07-09T08:50:26.392Z,7.93
2023-07-09T08:51:25.832Z,7.70
2023-07-09T08:52:25.825Z,8.33
2023-07-09T08:53:25.842Z,8.60
2023-07-09T08:54:27.931Z,8.82
2023-07-09T08:55:25.786Z,9.29
2023-07-09T08:56:25.790Z,8.68
2023-07-09T08:57:25.819Z,8.41
2023-07-09T08:58:25.803Z,8.39
2023-07-09T08:59:25.799Z,7.69
2023-07-09T09:00:25.806Z,7.54
2023-07-09T09:01:25.855Z,7.18
2023-07-09T09:02:25.837Z,7.10
2023-07-09T09:03:25.809Z,7.59
2023-07-09T09:04:25.778Z,7.33
2023-07-09T09:05:25.776Z,7.25
2023-07-09T09:06:25.780Z,7.44
2023-07-09T09:07:25.751Z,6.82
2023-07-09T09:08:25.759Z,7.04
2023-07-09T09:09:25.745Z,6.96
2023-07-09T09:10:25.708Z,6.74
2023-07-09T09:11:25.703Z,6.81
2023-07-09T09:12:25.700Z,6.68
2023-07-09T09:13:25.729Z,6.53
2023-07-09T09:14:25.744Z,6.33
2023-07-09T09:15:25.693Z,6.38
2023-07-09T09:16:25.705Z,6.46
2023-07-09T09:17:25.756Z,6.44
2023-07-09T09:18:25.697Z,6.65
2023-07-09T09:19:25.655Z,6.69
2023-07-09T09:20:25.654Z,6.39
2023-07-09T09:21:25.653Z,6.50
2023-07-09T09:22:25.643Z,5.68
2023-07-09T09:23:25.652Z,5.29
2023-07-09T09:24:25.705Z,5.22
2023-07-09T09:25:25.650Z,4.91
2023-07-09T09:26:25.609Z,4.89
2023-07-09T09:27:25.609Z,4.67
2023-07-09T09:28:25.593Z,4.68
2023-07-09T09:29:25.589Z,4.46
2023-07-09T09:30:25.596Z,4.50
2023-07-09T09:31:25.602Z,4.36
2023-07-09T09:32:25.600Z,4.39
2023-07-09T09:33:25.592Z,4.28
2023-07-09T09:34:25.595Z,4.42
2023-07-09T09:35:25.557Z,3.95
2023-07-09T09:36:25.563Z,3.99
2023-07-09T09:37:25.523Z,3.95
2023-07-09T09:38:25.578Z,3.75
2023-07-09T09:39:25.541Z,3.89
2023-07-09T09:40:25.529Z,4.09
2023-07-09T09:41:25.519Z,4.15
2023-07-09T09:42:25.511Z,4.39
2023-07-09T09:43:25.524Z,4.11
2023-07-09T09:44:25.503Z,3.79
2023-07-09T09:45:25.524Z,3.62
2023-07-09T09:46:25.622Z,3.67
2023-07-09T09:47:25.755Z,3.55
2023-07-09T09:48:25.715Z,3.59
2023-07-09T09:49:25.764Z,3.58
2023-07-09T09:50:25.805Z,3.42
2023-07-09T09:51:25.862Z,3.45
2023-07-09T09:52:27.287Z,3.29
2023-07-09T09:53:25.995Z,3.30
2023-07-09T09:54:26.047Z,3.58
2023-07-09T09:55:26.111Z,3.71
2023-07-09T09:56:26.184Z,3.78
2023-07-09T09:57:26.305Z,3.45
2023-07-09T09:58:26.304Z,3.54
2023-07-09T09:59:26.345Z,3.51
2023-07-09T10:00:26.449Z,3.39
2023-07-09T10:01:26.550Z,3.23
2023-07-09T10:02:26.637Z,3.32
2023-07-09T10:03:26.706Z,3.24
2023-07-09T10:04:26.659Z,3.11
2023-07-09T10:05:26.695Z,3.15
2023-07-09T10:06:26.789Z,2.91
2023-07-09T10:07:26.810Z,2.61
2023-07-09T10:08:26.874Z,2.54
2023-07-09T10:09:28.641Z,2.59
2023-07-09T10:10:26.930Z,2.51
2023-07-09T10:11:26.955Z,2.37
2023-07-09T10:12:26.920Z,2.32
2023-07-09T10:13:26.953Z,2.26
2023-07-09T10:14:26.900Z,2.24
2023-07-09T10:15:26.887Z,2.23
2023-07-09T10:16:26.892Z,2.29
2023-07-09T10:17:26.949Z,2.27
2023-07-09T10:18:26.949Z,2.13
2023-07-09T10:19:27.352Z,2.04
2023-07-09T10:20:28.688Z,1.82
2023-07-09T10:21:26.902Z,1.73
2023-07-09T10:22:26.878Z,1.63
2023-07-09T10:23:26.878Z,1.59
2023-07-09T10:24:26.831Z,1.67
2023-07-09T10:25:26.849Z,1.68
2023-07-09T10:26:26.824Z,1.57
2023-07-09T10:27:26.862Z,1.67
2023-07-09T10:28:26.856Z,1.60
2023-07-09T10:29:26.806Z,1.62
2023-07-09T10:30:26.879Z,1.58
2023-07-09T10:31:27.008Z,1.40
2023-07-09T10:32:26.944Z,1.48
2023-07-09T10:33:26.996Z,1.45
2023-07-09T10:34:27.000Z,1.41
2023-07-09T10:35:27.059Z,1.62
2023-07-09T10:36:27.061Z,1.62
2023-07-09T10:37:27.114Z,1.53
2023-07-09T10:38:27.144Z,1.41
2023-07-09T10:39:27.188Z,1.38
2023-07-09T10:40:27.219Z,1.30
2023-07-09T10:41:28.093Z,1.30
2023-07-09T10:42:27.325Z,1.27
2023-07-09T10:43:27.377Z,1.31
2023-07-09T10:44:27.414Z,1.32
2023-07-09T10:45:27.476Z,1.30
2023-07-09T10:46:27.601Z,1.33
2023-07-09T10:47:27.593Z,1.31
2023-07-09T10:48:27.613Z,1.31
2023-07-09T10:49:27.684Z,1.31
2023-07-09T10:50:27.747Z,1.26
2023-07-09T10:51:27.786Z,1.14
2023-07-09T10:52:27.861Z,1.10
2023-07-09T10:53:27.858Z,1.05
2023-07-09T10:54:27.914Z,0.97
2023-07-09T10:55:27.906Z,0.99
2023-07-09T10:56:28.008Z,0.98
2023-07-09T10:57:28.042Z,0.88
2023-07-09T10:58:28.061Z,0.90
2023-07-09T10:59:28.083Z,0.94
2023-07-09T11:00:28.118Z,0.93
2023-07-09T11:01:28.196Z,0.93
2023-07-09T11:02:28.229Z,0.88
2023-07-09T11:03:28.439Z,0.78
2023-07-09T11:04:28.340Z,0.76
2023-07-09T11:05:28.302Z,0.81
2023-07-09T11:06:28.351Z,0.76
2023-07-09T11:07:28.400Z,0.69
2023-07-09T11:08:28.483Z,0.66
2023-07-09T11:09:28.513Z,0.68
2023-07-09T11:10:28.546Z,0.67
2023-07-09T11:11:28.559Z,0.65
2023-07-09T11:12:28.603Z,0.65
2023-07-09T11:13:39.104Z,0.67
2023-07-09T11:14:29.695Z,0.61
2023-07-09T11:15:28.652Z,0.61
2023-07-09T11:16:28.700Z,0.65
2023-07-09T11:17:28.743Z,0.65
2023-07-09T11:18:28.603Z,0.67
2023-07-09T11:19:28.621Z,0.70
2023-07-09T11:20:28.604Z,0.66
2023-07-09T11:21:28.606Z,0.63
2023-07-09T11:22:28.630Z,0.62
2023-07-09T11:23:28.619Z,0.61
2023-07-09T11:24:28.606Z,0.53
2023-07-09T11:25:28.565Z,0.51
2023-07-09T11:26:28.555Z,0.50
2023-07-09T11:27:28.626Z,0.56
2023-07-09T11:28:28.673Z,0.52
2023-07-09T11:29:28.678Z,0.50
2023-07-09T11:30:28.721Z,0.51
2023-07-09T11:31:28.792Z,0.50
2023-07-09T11:32:28.798Z,0.51
2023-07-09T11:33:28.924Z,0.52
2023-07-09T11:34:28.806Z,0.50
2023-07-09T11:35:28.811Z,0.54
2023-07-09T11:36:28.801Z,0.50
2023-07-09T11:37:28.824Z,0.52
2023-07-09T11:38:28.872Z,0.52
2023-07-09T11:39:28.880Z,0.54
2023-07-09T11:40:28.908Z,0.52
2023-07-09T11:41:28.957Z,0.54
2023-07-09T11:42:28.994Z,0.52
2023-07-09T11:43:29.004Z,0.51
2023-07-09T11:44:29.009Z,0.54
2023-07-09T11:45:29.055Z,0.50
2023-07-09T11:46:29.064Z,0.51
2023-07-09T11:47:29.138Z,0.52
2023-07-09T11:48:29.107Z,0.54
2023-07-09T11:49:29.151Z,0.51
2023-07-09T11:50:29.210Z,0.53
2023-07-09T11:51:29.207Z,0.53
2023-07-09T11:52:29.209Z,0.54
2023-07-09T11:53:29.253Z,0.50
2023-07-09T11:54:29.245Z,0.51
2023-07-09T11:55:29.331Z,0.52
2023-07-09T11:56:29.327Z,0.54
2023-07-09T11:57:29.327Z,0.50
2023-07-09T11:58:29.370Z,0.51
2023-07-09T11:59:29.396Z,0.53
2023-07-09T12:00:29.428Z,0.56
2023-07-09T12:01:29.498Z,0.54
2023-07-09T12:02:29.475Z,0.59
2023-07-09T12:03:29.530Z,0.59
2023-07-09T12:04:29.491Z,0.57
2023-07-09T12:05:29.518Z,0.63
2023-07-09T12:06:29.543Z,0.63
2023-07-09T12:07:30.657Z,0.62
2023-07-09T12:08:29.599Z,0.61
2023-07-09T12:09:29.587Z,0.60
2023-07-09T12:10:29.649Z,0.59
2023-07-09T12:11:29.670Z,0.58
2023-07-09T12:12:29.743Z,0.58
2023-07-09T12:13:29.732Z,0.63
2023-07-09T12:14:29.711Z,0.58
2023-07-09T12:15:29.755Z,0.55
2023-07-09T12:16:29.822Z,0.54
2023-07-09T12:17:29.855Z,0.53
2023-07-09T12:18:29.845Z,0.52
2023-07-09T12:19:29.854Z,0.55
2023-07-09T12:20:29.864Z,0.51
2023-07-09T12:21:29.857Z,0.52
2023-07-09T12:22:29.880Z,0.54
2023-07-09T12:23:29.891Z,0.54
2023-07-09T12:24:29.932Z,0.54
2023-07-09T12:25:29.943Z,0.51
2023-07-09T12:26:29.966Z,0.55
2023-07-09T12:27:29.965Z,0.52
2023-07-09T12:28:29.989Z,0.52
2023-07-09T12:29:30.031Z,0.52
2023-07-09T12:30:30.020Z,0.53
2023-07-09T12:31:30.068Z,0.55
2023-07-09T12:32:30.081Z,0.58
2023-07-09T12:33:30.095Z,0.55
2023-07-09T12:34:30.077Z,0.54
2023-07-09T12:35:30.123Z,0.52
2023-07-09T12:36:30.083Z,0.53
2023-07-09T12:37:30.147Z,0.53
2023-07-09T12:38:30.212Z,0.52
2023-07-09T12:39:30.149Z,0.51
2023-07-09T12:40:30.110Z,0.50
2023-07-09T12:41:30.169Z,0.53
2023-07-09T12:42:30.173Z,0.52
2023-07-09T12:43:30.202Z,0.50
2023-07-09T12:44:30.177Z,0.53
2023-07-09T12:45:30.208Z,0.54
2023-07-09T12:46:30.203Z,0.57
2023-07-09T12:47:30.265Z,0.63
2023-07-09T12:48:30.227Z,0.71
2023-07-09T12:49:30.255Z,0.68
2023-07-09T12:50:30.238Z,0.62
2023-07-09T12:51:30.280Z,0.63
2023-07-09T12:52:30.256Z,0.66
2023-07-09T12:53:30.257Z,0.63
2023-07-09T12:54:30.295Z,0.65
2023-07-09T12:55:30.302Z,0.65
2023-07-09T12:56:30.325Z,0.68
2023-07-09T12:57:30.322Z,0.72
2023-07-09T12:58:30.384Z,0.72
2023-07-09T12:59:30.391Z,0.78
2023-07-09T13:00:30.363Z,0.71
2023-07-09T13:01:37.513Z,0.70
2023-07-09T13:02:30.574Z,0.70
2023-07-09T13:03:30.512Z,0.70